Time;durP1;ratioP1;P1;durP2;ratioP2;P2;SDS_P1;SDS_P2;PMS_P1;PMS_P2;Temp;Humidity;BMP_temperature;BMP_pressure;BME280_temperature;BME280_humidity;BME280_pressure;Samples;Min_cycle;Max_cycle;Signal;HPM_P1;HPM_P2
2023/03/12 00:01:32;;;;;;;6.63;3.28;;;;;;;4.50;67.15;101051.78;5215181;28;20029;-71
2023/03/12 00:04:03;;;;;;;10.15;4.07;;;;;;;4.52;66.91;101050.78;5216346;28;20079;-72
2023/03/12 00:06:35;;;;;;;8.65;4.10;;;;;;;4.55;68.32;101060.16;5215368;28;20533;-72
2023/03/12 00:09:08;;;;;;;9.65;3.95;;;;;;;4.51;67.52;101043.94;5214737;28;20164;-72
2023/03/12 00:11:39;;;;;;;7.88;3.45;;;;;;;4.38;69.00;101017.00;5215785;28;20034;-71
2023/03/12 00:14:10;;;;;;;7.13;3.40;;;;;;;4.57;69.02;101046.16;5216542;28;20033;-72
2023/03/12 00:16:41;;;;;;;6.38;3.30;;;;;;;4.56;70.02;101035.88;5215842;28;20491;-72
2023/03/12 00:19:13;;;;;;;7.72;3.55;;;;;;;4.57;69.68;101040.13;5216561;28;20026;-72
2023/03/12 00:21:44;;;;;;;10.18;3.95;;;;;;;4.58;68.94;101034.00;5215653;28;20554;-72
2023/03/12 00:24:16;;;;;;;6.07;3.35;;;;;;;4.57;69.78;101028.00;5215770;28;20061;-72
2023/03/12 00:26:47;;;;;;;6.75;3.03;;;;;;;4.57;68.38;101017.63;5215372;28;20022;-72
2023/03/12 00:29:18;;;;;;;5.97;3.20;;;;;;;4.60;65.54;101011.41;5215783;28;20053;-72
2023/03/12 00:31:50;;;;;;;5.05;2.90;;;;;;;4.59;66.36;101005.41;5215495;28;20030;-72
2023/03/12 00:34:21;;;;;;;7.93;3.17;;;;;;;4.58;65.41;101010.66;5215035;28;20493;-72
2023/03/12 00:36:53;;;;;;;4.45;3.13;;;;;;;4.57;66.31;101003.81;5215272;28;20479;-72
2023/03/12 00:39:24;;;;;;;9.05;3.25;;;;;;;4.64;65.13;101007.72;5216089;28;20026;-72
2023/03/12 00:41:55;;;;;;;9.90;3.70;;;;;;;4.61;66.54;101006.13;5215534;28;20533;-72
2023/03/12 00:44:26;;;;;;;8.70;3.38;;;;;;;4.68;63.63;101005.78;5215867;28;20391;-72
2023/03/12 00:46:58;;;;;;;7.15;3.10;;;;;;;4.66;65.14;101002.44;5214990;28;20125;-72
2023/03/12 00:49:29;;;;;;;6.75;3.15;;;;;;;4.68;64.02;101001.44;5216276;28;20018;-72
2023/03/12 00:52:01;;;;;;;7.93;2.90;;;;;;;4.68;64.51;100991.06;5213885;28;20038;-72
2023/03/12 00:54:32;;;;;;;9.52;3.13;;;;;;;4.69;64.22;100991.88;5215082;28;20037;-72
2023/03/12 00:57:03;;;;;;;8.05;3.22;;;;;;;4.64;66.18;100985.19;5215990;28;20037;-72
2023/03/12 00:59:39;;;;;;;6.00;3.10;;;;;;;4.76;62.72;100995.81;5213851;28;20041;-72
2023/03/12 01:02:10;;;;;;;5.50;2.95;;;;;;;4.74;65.27;100995.06;5214602;28;20083;-72
2023/03/12 01:04:41;;;;;;;8.85;3.00;;;;;;;4.74;62.65;100989.88;5214310;28;20025;-72
2023/03/12 01:07:13;;;;;;;7.18;3.15;;;;;;;4.72;64.06;100986.53;5215322;28;20032;-72
2023/03/12 01:09:44;;;;;;;6.50;2.63;;;;;;;4.78;63.52;100975.78;5213261;28;20471;-72
2023/03/12 01:12:15;;;;;;;10.40;3.55;;;;;;;4.76;63.33;100973.28;5214980;28;20514;-72
2023/03/12 01:14:46;;;;;;;6.13;3.20;;;;;;;4.71;65.34;100958.91;5215590;28;20508;-71
2023/03/12 01:17:18;;;;;;;9.57;3.50;;;;;;;4.77;63.38;100963.72;5214364;28;20037;-72
2023/03/12 01:19:49;;;;;;;9.02;4.30;;;;;;;4.78;64.17;100962.81;5213906;28;20026;-72
2023/03/12 01:22:20;;;;;;;9.32;3.33;;;;;;;4.72;64.74;100950.19;5219634;28;20080;-72
2023/03/12 01:24:51;;;;;;;6.97;3.58;;;;;;;4.72;65.30;100955.38;5218342;28;20026;-72
2023/03/12 01:27:23;;;;;;;9.70;3.30;;;;;;;4.74;65.12;100956.13;5218510;28;20034;-72
2023/03/12 01:29:54;;;;;;;6.78;3.15;;;;;;;4.65;66.41;100949.69;5219413;28;20024;-72
2023/03/12 01:32:26;;;;;;;7.45;3.30;;;;;;;4.72;66.38;100973.53;5218446;28;20033;-72
2023/03/12 01:34:58;;;;;;;10.55;3.70;;;;;;;4.67;64.39;100970.41;5218782;28;20028;-71
2023/03/12 01:37:31;;;;;;;6.90;3.22;;;;;;;4.76;63.68;100967.25;5219106;28;20030;-72
2023/03/12 01:40:03;;;;;;;7.88;3.17;;;;;;;4.70;65.59;100958.06;5218535;28;20040;-71
2023/03/12 01:42:34;;;;;;;5.40;3.00;;;;;;;4.71;66.21;100951.94;5219556;28;20038;-72
2023/03/12 01:45:26;;;;;;;7.18;3.70;;;;;;;4.72;64.28;100945.84;5219455;28;20458;-72
2023/03/12 01:47:57;;;;;;;8.05;3.80;;;;;;;4.72;65.76;100937.22;5217881;28;20046;-72
2023/03/12 01:50:28;;;;;;;7.28;3.50;;;;;;;4.79;64.38;100933.34;5218453;28;20080;-72
2023/03/12 01:53:00;;;;;;;9.27;3.38;;;;;;;4.77;65.83;100935.16;5219075;28;20036;-72
2023/03/12 01:55:31;;;;;;;7.30;3.33;;;;;;;4.73;67.12;100937.09;5218954;28;20383;-72
2023/03/12 01:58:05;;;;;;;10.07;4.13;;;;;;;4.70;67.22;100931.25;5218474;28;20483;-72
2023/03/12 02:00:36;;;;;;;6.43;3.67;;;;;;;4.72;66.84;100932.03;5218673;28;20038;-72
2023/03/12 02:03:09;;;;;;;10.70;3.70;;;;;;;4.74;67.21;100932.78;5217754;28;20372;-72
2023/03/12 02:05:54;;;;;;;11.00;4.10;;;;;;;4.91;67.14;100924.81;5217282;28;20112;-72
2023/03/12 02:08:25;;;;;;;7.32;3.92;;;;;;;4.71;66.13;100925.16;5218187;28;20104;-72
2023/03/12 02:10:56;;;;;;;9.48;3.95;;;;;;;4.68;67.43;100923.59;5218477;28;20049;-72
2023/03/12 02:13:28;;;;;;;8.43;3.80;;;;;;;4.71;67.21;100913.03;5218079;28;20030;-72
2023/03/12 02:15:59;;;;;;;8.07;3.63;;;;;;;4.72;68.63;100911.25;5216890;28;20048;-72
2023/03/12 02:18:33;;;;;;;8.07;4.18;;;;;;;4.77;66.47;100902.28;5218998;28;20447;-72
2023/03/12 02:21:12;;;;;;;;;;;;;;;5.32;65.84;100887.69;5218528;28;20022;-72
2023/03/12 02:23:50;;;;;;;9.30;4.15;;;;;;;4.90;68.78;100889.41;5217064;28;19917;-71
2023/03/12 02:26:24;;;;;;;8.23;4.35;;;;;;;4.79;66.99;100887.44;5216565;28;20096;-72
2023/03/12 02:28:58;;;;;;;6.20;3.95;;;;;;;4.74;67.42;100891.25;5218352;28;20009;-72
2023/03/12 02:31:36;;;;;;;7.18;4.57;;;;;;;4.75;70.57;100893.75;5217281;28;20115;-72
2023/03/12 02:34:08;;;;;;;7.95;3.38;;;;;;;4.68;68.70;100891.59;5218426;28;20040;-72
2023/03/12 02:36:39;;;;;;;6.40;3.17;;;;;;;4.61;70.08;100891.97;5216618;28;20403;-72
2023/03/12 02:39:11;;;;;;;9.27;3.80;;;;;;;4.63;70.73;100895.31;5216770;28;20462;-72
2023/03/12 02:41:54;;;;;;;7.00;3.45;;;;;;;4.77;70.71;100886.72;5216894;28;20056;-72
2023/03/12 02:44:32;;;;;;;9.52;3.80;;;;;;;4.73;70.32;100897.34;5217900;28;20108;-72
2023/03/12 02:47:03;;;;;;;8.30;3.75;;;;;;;4.62;71.60;100895.38;5217571;28;20038;-72
2023/03/12 02:49:35;;;;;;;7.85;3.83;;;;;;;4.64;71.20;100902.16;5217595;28;20088;-72
2023/03/12 02:52:06;;;;;;;8.68;3.78;;;;;;;4.61;73.42;100897.16;5217623;28;20031;-72
2023/03/12 02:54:37;;;;;;;7.78;3.50;;;;;;;4.63;71.68;100895.31;5218167;28;20471;-72
2023/03/12 02:57:09;;;;;;;7.82;3.80;;;;;;;4.62;73.88;100901.44;5216221;28;20034;-72
2023/03/12 02:59:40;;;;;;;8.35;4.00;;;;;;;4.62;75.24;100897.97;5217099;28;20084;-72
2023/03/12 03:02:11;;;;;;;7.93;4.18;;;;;;;4.63;79.30;100884.94;5216852;28;20041;-72
2023/03/12 03:04:43;;;;;;;10.35;3.78;;;;;;;4.62;79.99;100874.63;5217834;28;20040;-72
2023/03/12 03:07:14;;;;;;;8.13;4.05;;;;;;;4.58;81.17;100879.19;5216064;28;20037;-72
2023/03/12 03:09:45;;;;;;;6.30;3.60;;;;;;;4.55;83.72;100873.34;5217770;28;20024;-72
2023/03/12 03:12:17;;;;;;;7.82;3.78;;;;;;;4.52;84.72;100882.13;5217118;28;20034;-72
2023/03/12 03:14:48;;;;;;;7.78;3.78;;;;;;;4.52;85.71;100882.13;5216560;28;20032;-72
2023/03/12 03:17:22;;;;;;;8.60;4.63;;;;;;;4.49;86.51;100887.50;5217482;28;20095;-72
2023/03/12 03:19:53;;;;;;;6.72;3.42;;;;;;;4.43;88.21;100880.06;5217172;28;20037;-72
2023/03/12 03:22:24;;;;;;;7.18;3.75;;;;;;;4.45;89.12;100886.00;5217075;28;20026;-72
2023/03/12 03:24:56;;;;;;;7.18;3.85;;;;;;;4.48;90.03;100877.22;5217131;28;20026;-72
2023/03/12 03:27:27;;;;;;;8.73;4.00;;;;;;;4.47;91.76;100875.53;5216241;28;20026;-72
2023/03/12 03:29:59;;;;;;;9.02;3.63;;;;;;;4.43;92.64;100869.69;5216689;28;20073;-72
2023/03/12 03:32:30;;;;;;;8.63;3.97;;;;;;;4.43;93.47;100880.06;5216214;28;20071;-72
2023/03/12 03:35:02;;;;;;;6.07;3.67;;;;;;;4.43;94.51;100869.69;5216829;28;20052;-72
2023/03/12 03:37:33;;;;;;;8.93;3.75;;;;;;;4.38;93.90;100871.72;5217075;28;20037;-72
2023/03/12 03:40:05;;;;;;;15.65;3.97;;;;;;;4.45;94.17;100864.44;5215319;28;20041;-72
2023/03/12 03:42:38;;;;;;;7.97;3.78;;;;;;;4.43;97.86;100854.13;5214937;28;20452;-72
2023/03/12 03:45:09;;;;;;;6.40;3.53;;;;;;;4.46;96.36;100851.34;5216340;28;20058;-72
2023/03/12 03:47:41;;;;;;;6.70;3.67;;;;;;;4.50;100.00;100844.22;5215068;28;20738;-72
2023/03/12 03:50:12;;;;;;;7.93;3.58;;;;;;;4.48;97.37;100833.13;5214647;28;20029;-72
2023/03/12 03:52:44;;;;;;;5.93;3.60;;;;;;;4.47;95.43;100826.25;5215469;28;20033;-72
2023/03/12 03:55:15;;;;;;;8.77;3.60;;;;;;;4.49;95.43;100827.84;5216152;28;20026;-72
2023/03/12 03:57:47;;;;;;;11.85;4.35;;;;;;;4.47;95.81;100818.47;5215910;28;20026;-72
2023/03/12 04:00:18;;;;;;;9.20;4.07;;;;;;;4.41;96.41;100805.88;5214358;28;20077;-72
2023/03/12 04:02:50;;;;;;;7.45;3.47;;;;;;;4.39;97.31;100818.91;5214481;28;20033;-72
2023/03/12 04:05:21;;;;;;;7.68;4.00;;;;;;;4.38;99.35;100828.47;5213649;28;20457;-72
2023/03/12 04:07:53;;;;;;;6.88;4.03;;;;;;;4.36;97.21;100822.56;5214344;28;20030;-72
2023/03/12 04:10:24;;;;;;;9.63;4.38;;;;;;;4.41;98.25;100821.44;5215236;28;20022;-72
2023/03/12 04:12:56;;;;;;;8.10;3.90;;;;;;;4.37;96.50;100813.00;5214380;28;20021;-71
2023/03/12 04:15:27;;;;;;;6.60;4.18;;;;;;;4.38;97.74;100796.50;5215345;28;20053;-72
2023/03/12 04:17:59;;;;;;;6.88;3.88;;;;;;;4.43;96.30;100794.47;5214063;28;20038;-72
2023/03/12 04:20:30;;;;;;;8.75;4.03;;;;;;;4.46;99.00;100796.06;5214519;28;20033;-73
2023/03/12 04:23:01;;;;;;;7.13;3.88;;;;;;;4.47;100.00;100785.59;5215073;28;20057;-72
2023/03/12 04:25:33;;;;;;;8.35;4.40;;;;;;;4.47;97.73;100788.19;5214004;28;20036;-72
2023/03/12 04:28:04;;;;;;;7.10;3.55;;;;;;;4.49;97.52;100777.72;5215644;28;20022;-72
2023/03/12 04:30:37;;;;;;;9.20;4.00;;;;;;;4.48;96.18;100773.47;5213156;28;20083;-72
2023/03/12 04:33:08;;;;;;;7.47;3.53;;;;;;;4.51;93.03;100776.72;5214318;28;20495;-72
2023/03/12 04:35:49;;;;;;;9.68;4.00;;;;;;;4.65;93.99;100760.28;5213283;28;20044;-72
2023/03/12 04:38:22;;;;;;;6.47;3.55;;;;;;;4.52;96.82;100761.97;5213828;28;20402;-72
2023/03/12 04:41:13;;;;;;;;;;;;;;;5.06;91.91;100762.06;5214941;28;20022;-72
2023/03/12 04:43:44;;;;;;;8.40;3.63;;;;;;;4.56;94.13;100755.66;5214259;28;19917;-72
2023/03/12 04:46:15;;;;;;;7.30;3.63;;;;;;;4.46;95.01;100751.94;5214659;28;20036;-72
2023/03/12 04:48:46;;;;;;;11.48;3.60;;;;;;;4.53;98.27;100774.00;5213955;28;20447;-72
2023/03/12 04:51:18;;;;;;;8.18;3.95;;;;;;;4.53;100.00;100769.66;5213527;28;20042;-72
2023/03/12 04:53:50;;;;;;;5.28;3.38;;;;;;;4.53;100.00;100763.63;5214975;28;20029;-72
2023/03/12 04:56:21;;;;;;;8.07;3.42;;;;;;;4.51;100.00;100749.91;5212557;28;20372;-72
2023/03/12 04:58:53;;;;;;;6.50;3.42;;;;;;;4.56;100.00;100759.09;5214097;28;20038;-72
2023/03/12 05:01:28;;;;;;;9.07;3.72;;;;;;;4.65;100.00;100755.09;5213286;28;20038;-72
2023/03/12 05:04:00;;;;;;;7.68;3.55;;;;;;;4.55;100.00;100736.69;5213318;28;20103;-72
2023/03/12 05:06:32;;;;;;;6.60;3.40;;;;;;;4.59;100.00;100740.75;5214427;28;20108;-72
2023/03/12 05:09:03;;;;;;;7.07;3.42;;;;;;;4.59;100.00;100726.94;5213860;28;20093;-72
2023/03/12 05:11:34;;;;;;;8.32;3.47;;;;;;;4.57;100.00;100723.59;5211435;28;20029;-72
2023/03/12 05:14:06;;;;;;;7.72;3.83;;;;;;;4.61;100.00;100723.31;5214865;28;20025;-72
2023/03/12 05:16:37;;;;;;;7.20;3.55;;;;;;;4.57;100.00;100711.44;5214258;28;20026;-72
2023/03/12 05:19:09;;;;;;;8.15;3.88;;;;;;;4.59;100.00;100711.38;5213750;28;20037;-72
2023/03/12 05:21:41;;;;;;;8.77;3.75;;;;;;;4.64;100.00;100719.69;5214549;28;20033;-72
2023/03/12 05:24:12;;;;;;;9.95;4.13;;;;;;;4.59;100.00;100707.00;5213398;28;20046;-72
2023/03/12 05:26:43;;;;;;;9.65;4.15;;;;;;;4.60;100.00;100715.63;5213455;28;20030;-72
2023/03/12 05:29:15;;;;;;;9.23;3.70;;;;;;;4.59;100.00;100721.75;5214068;28;20033;-72
2023/03/12 05:31:46;;;;;;;8.52;3.53;;;;;;;4.58;100.00;100723.53;5214046;28;20505;-72
2023/03/12 05:34:17;;;;;;;6.45;3.78;;;;;;;4.55;100.00;100718.50;5212574;28;20027;-72
2023/03/12 05:36:48;;;;;;;5.57;2.90;;;;;;;4.54;100.00;100710.81;5214018;28;20543;-72
2023/03/12 05:39:20;;;;;;;10.68;4.60;;;;;;;4.48;100.00;100704.25;5213692;28;20038;-72
2023/03/12 05:41:56;;;;;;;8.50;3.92;;;;;;;4.53;100.00;100702.19;5214282;28;20025;-72
2023/03/12 05:44:27;;;;;;;10.13;3.90;;;;;;;4.55;100.00;100697.75;5213235;28;20097;-72
2023/03/12 05:46:58;;;;;;;9.88;3.83;;;;;;;4.58;100.00;100697.56;5213707;28;20038;-72
2023/03/12 05:49:30;;;;;;;8.05;3.47;;;;;;;4.57;100.00;100700.25;5214597;28;20053;-72
2023/03/12 05:52:01;;;;;;;7.90;3.92;;;;;;;4.62;100.00;100693.84;5214026;28;20030;-72
2023/03/12 05:54:32;;;;;;;11.43;4.63;;;;;;;4.61;100.00;100699.13;5213684;28;20029;-72
2023/03/12 05:57:04;;;;;;;4.85;3.58;;;;;;;4.59;100.00;100690.63;5214138;28;20018;-72
2023/03/12 05:59:35;;;;;;;10.02;4.13;;;;;;;4.56;100.00;100696.00;5213716;28;20124;-72
2023/03/12 06:02:06;;;;;;;6.85;4.18;;;;;;;4.60;100.00;100702.66;5211519;28;20037;-71
2023/03/12 06:04:37;;;;;;;8.00;3.97;;;;;;;4.63;100.00;100695.50;5212209;28;20088;-71
2023/03/12 06:07:09;;;;;;;7.28;3.88;;;;;;;4.61;100.00;100699.94;5214746;28;20037;-71
2023/03/12 06:09:41;;;;;;;6.40;3.92;;;;;;;4.60;100.00;100707.84;5218603;28;20032;-71
2023/03/12 06:12:13;;;;;;;7.30;4.20;;;;;;;4.63;100.00;100711.09;5217201;28;20029;-71
2023/03/12 06:14:44;;;;;;;9.80;3.95;;;;;;;4.67;100.00;100703.13;5217646;28;20305;-71
2023/03/12 06:17:15;;;;;;;9.23;4.40;;;;;;;4.66;100.00;100711.81;5216727;28;20034;-72
2023/03/12 06:19:50;;;;;;;8.88;4.32;;;;;;;4.76;100.00;100715.50;5215556;28;20669;-71
2023/03/12 06:22:21;;;;;;;9.60;4.47;;;;;;;4.68;100.00;100720.34;5216337;28;20463;-72
2023/03/12 06:24:53;;;;;;;8.93;4.55;;;;;;;4.70;100.00;100731.44;5216050;28;20037;-71
2023/03/12 06:27:24;;;;;;;10.20;4.10;;;;;;;4.72;100.00;100717.44;5217994;28;20026;-72
2023/03/12 06:29:56;;;;;;;6.80;4.43;;;;;;;4.76;100.00;100718.94;5217481;28;20018;-72
2023/03/12 06:32:27;;;;;;;11.95;4.38;;;;;;;4.77;100.00;100712.81;5216351;28;20030;-71
2023/03/12 06:35:03;;;;;;;8.70;4.75;;;;;;;4.78;100.00;100704.09;5217149;28;20371;-71
2023/03/12 06:37:34;;;;;;;10.35;4.97;;;;;;;4.80;100.00;100709.19;5215466;28;20487;-72
2023/03/12 06:40:08;;;;;;;9.15;4.55;;;;;;;4.81;100.00;100695.28;5215550;28;20037;-71
2023/03/12 06:42:40;;;;;;;10.00;4.28;;;;;;;4.78;100.00;100692.91;5215807;28;20033;-73
2023/03/12 06:45:11;;;;;;;10.52;4.47;;;;;;;4.83;100.00;100693.44;5216880;28;20487;-72
2023/03/12 06:47:42;;;;;;;8.80;4.93;;;;;;;4.81;100.00;100687.47;5215531;28;20057;-72
2023/03/12 06:50:14;;;;;;;7.25;4.50;;;;;;;4.82;100.00;100676.19;5215729;28;20383;-72
2023/03/12 06:52:45;;;;;;;8.90;4.32;;;;;;;4.81;100.00;100674.50;5217208;28;20022;-72
2023/03/12 06:55:16;;;;;;;10.65;5.00;;;;;;;4.85;100.00;100673.41;5217414;28;20026;-71
2023/03/12 06:57:47;;;;;;;5.95;4.45;;;;;;;4.85;100.00;100669.06;5215023;28;20028;-71
2023/03/12 07:00:19;;;;;;;8.23;5.22;;;;;;;4.88;100.00;100673.19;5217131;28;20034;-71
2023/03/12 07:02:50;;;;;;;8.50;4.93;;;;;;;4.88;100.00;100663.63;5217486;28;20022;-71
2023/03/12 07:05:23;;;;;;;9.52;5.32;;;;;;;4.87;100.00;100661.16;5216624;28;20057;-72
2023/03/12 07:07:55;;;;;;;7.38;5.03;;;;;;;4.93;100.00;100657.34;5217446;28;20101;-72
2023/03/12 07:10:30;;;;;;;9.25;5.28;;;;;;;4.92;100.00;100659.09;5215995;28;20033;-71
2023/03/12 07:13:01;;;;;;;9.38;5.95;;;;;;;4.92;100.00;100659.09;5217443;28;20037;-71
2023/03/12 07:15:33;;;;;;;9.55;4.95;;;;;;;4.94;100.00;100659.00;5214783;28;20092;-71
2023/03/12 07:18:09;;;;;;;10.30;5.97;;;;;;;5.05;100.00;100656.56;5214384;28;20026;-71
2023/03/12 07:20:42;;;;;;;9.43;5.38;;;;;;;5.04;100.00;100658.31;5215021;28;20563;-72
2023/03/12 07:23:14;;;;;;;9.15;5.28;;;;;;;5.01;100.00;100663.69;5216944;28;20033;-72
2023/03/12 07:25:46;;;;;;;7.97;5.50;;;;;;;4.97;100.00;100669.19;5215913;28;20036;-72
2023/03/12 07:28:19;;;;;;;8.27;5.20;;;;;;;5.05;100.00;100672.13;5216253;28;20504;-72
2023/03/12 07:30:50;;;;;;;8.32;5.50;;;;;;;5.07;100.00;100675.44;5215430;28;20036;-72
2023/03/12 07:33:22;;;;;;;9.07;5.90;;;;;;;5.08;100.00;100675.38;5216179;28;20030;-71
2023/03/12 07:35:53;;;;;;;11.38;5.72;;;;;;;5.11;100.00;100671.72;5216341;28;20034;-71
2023/03/12 07:38:25;;;;;;;9.65;6.65;;;;;;;5.13;100.00;100675.06;5216113;28;20506;-71
2023/03/12 07:40:59;;;;;;;10.63;5.97;;;;;;;5.19;100.00;100679.00;5215641;28;20164;-71
2023/03/12 07:43:30;;;;;;;10.32;6.53;;;;;;;5.17;100.00;100679.13;5215791;28;20053;-71
2023/03/12 07:46:01;;;;;;;8.77;6.15;;;;;;;5.19;100.00;100679.88;5216068;28;20106;-71
2023/03/12 07:48:33;;;;;;;8.82;6.28;;;;;;;5.14;100.00;100681.91;5214561;28;20049;-71
2023/03/12 07:51:05;;;;;;;11.73;6.78;;;;;;;5.21;100.00;100684.94;5214910;28;20033;-71
2023/03/12 07:53:36;;;;;;;9.23;6.80;;;;;;;5.21;100.00;100678.00;5213719;28;20119;-72
2023/03/12 07:56:07;;;;;;;10.55;7.07;;;;;;;5.29;100.00;100677.47;5215242;28;20033;-71
2023/03/12 07:58:38;;;;;;;12.00;7.57;;;;;;;5.34;100.00;100683.19;5215387;28;20022;-71
2023/03/12 08:01:10;;;;;;;9.43;6.75;;;;;;;5.37;100.00;100677.81;5215665;28;20026;-72
2023/03/12 08:03:41;;;;;;;11.20;6.47;;;;;;;5.44;100.00;100666.09;5214916;28;20037;-71
2023/03/12 08:06:13;;;;;;;10.77;7.00;;;;;;;5.47;100.00;100657.25;5216130;28;20038;-71
2023/03/12 08:08:44;;;;;;;9.88;6.45;;;;;;;5.51;100.00;100666.53;5215431;28;20030;-71
2023/03/12 08:11:15;;;;;;;8.55;6.43;;;;;;;5.57;100.00;100663.53;5214823;28;20025;-71
2023/03/12 08:13:47;;;;;;;10.20;6.95;;;;;;;5.65;100.00;100663.00;5213717;28;20103;-71
2023/03/12 08:16:18;;;;;;;6.95;6.18;;;;;;;5.77;100.00;100664.78;5215847;28;20141;-72
2023/03/12 08:18:49;;;;;;;9.35;6.68;;;;;;;5.82;100.00;100665.28;5215564;28;20033;-71
2023/03/12 08:21:21;;;;;;;10.80;6.70;;;;;;;5.83;100.00;100665.19;5214878;28;20593;-72
2023/03/12 08:23:52;;;;;;;8.18;6.60;;;;;;;5.87;100.00;100673.59;5215242;28;20113;-71
2023/03/12 08:26:23;;;;;;;9.65;7.45;;;;;;;5.95;100.00;100668.75;5211357;28;20048;-72
2023/03/12 08:28:55;;;;;;;7.43;6.70;;;;;;;6.04;100.00;100678.53;5213353;28;20030;-72
2023/03/12 08:31:27;;;;;;;8.25;6.47;;;;;;;6.19;100.00;100681.00;5213510;28;20634;-72
2023/03/12 08:33:59;;;;;;;7.13;5.72;;;;;;;6.11;100.00;100676.34;5213616;28;20490;-72
2023/03/12 08:36:30;;;;;;;7.32;6.35;;;;;;;6.17;100.00;100686.31;5211301;28;20022;-72
2023/03/12 08:39:02;;;;;;;11.50;6.70;;;;;;;6.25;100.00;100683.16;5211342;28;20040;-72
2023/03/12 08:41:34;;;;;;;7.93;6.85;;;;;;;6.30;100.00;100686.31;5212221;28;20034;-72
2023/03/12 08:44:05;;;;;;;7.38;6.50;;;;;;;6.42;100.00;100697.63;5213295;28;20578;-72
2023/03/12 08:46:37;;;;;;;8.55;6.72;;;;;;;6.47;100.00;100691.16;5213352;28;20025;-72
2023/03/12 08:49:08;;;;;;;8.73;6.80;;;;;;;6.52;100.00;100702.09;5214019;28;20092;-71
2023/03/12 08:51:39;;;;;;;8.77;7.15;;;;;;;6.57;100.00;100697.38;5213526;28;20113;-71
2023/03/12 08:54:11;;;;;;;10.68;8.27;;;;;;;6.62;100.00;100699.66;5213859;28;20037;-72
2023/03/12 08:56:42;;;;;;;10.32;8.60;;;;;;;6.71;100.00;100700.78;5213053;28;20049;-72
2023/03/12 08:59:13;;;;;;;11.70;8.65;;;;;;;6.88;100.00;100699.59;5214542;28;20048;-72
2023/03/12 09:01:45;;;;;;;12.15;10.15;;;;;;;6.94;100.00;100712.19;5214084;28;20030;-71
2023/03/12 09:04:16;;;;;;;14.55;11.25;;;;;;;7.00;100.00;100709.94;5213806;28;20026;-72
2023/03/12 09:06:47;;;;;;;15.18;11.25;;;;;;;7.18;100.00;100709.56;5213556;28;20029;-72
2023/03/12 09:09:19;;;;;;;15.55;13.63;;;;;;;7.29;100.00;100714.81;5214329;28;20107;-72
2023/03/12 09:11:50;;;;;;;14.27;12.52;;;;;;;7.39;100.00;100708.00;5213136;28;21049;-72
2023/03/12 09:14:22;;;;;;;16.15;14.45;;;;;;;7.48;100.00;100703.88;5213379;28;20026;-72
2023/03/12 09:16:53;;;;;;;18.35;14.73;;;;;;;7.59;100.00;100698.69;5214154;28;20053;-72
2023/03/12 09:19:25;;;;;;;16.67;14.77;;;;;;;7.54;100.00;100709.47;5213039;28;20029;-72
2023/03/12 09:21:56;;;;;;;15.85;14.23;;;;;;;7.62;100.00;100695.03;5211718;28;20031;-72
2023/03/12 09:24:27;;;;;;;16.27;14.32;;;;;;;7.71;100.00;100689.94;5214370;28;20034;-72
2023/03/12 09:26:59;;;;;;;19.38;15.32;;;;;;;7.84;100.00;100707.28;5212427;28;20030;-72
2023/03/12 09:29:32;;;;;;;17.77;15.98;;;;;;;7.87;100.00;100704.44;5212747;28;20025;-72
2023/03/12 09:32:03;;;;;;;20.03;16.57;;;;;;;8.00;100.00;100706.00;5213260;28;20065;-71
2023/03/12 09:34:35;;;;;;;19.08;17.05;;;;;;;8.10;100.00;100708.75;5213243;28;20061;-72
2023/03/12 09:37:06;;;;;;;19.88;16.45;;;;;;;8.16;100.00;100707.44;5211821;28;20104;-72
2023/03/12 09:39:37;;;;;;;20.02;18.02;;;;;;;8.19;100.00;100695.00;5213557;28;20030;-72
2023/03/12 09:42:23;;;;;;;18.38;16.50;;;;;;;8.47;100.00;100705.94;5216402;28;20029;-72
2023/03/12 09:44:59;;;;;;;19.40;17.30;;;;;;;8.41;100.00;100704.66;5216454;28;20159;-72
2023/03/12 09:47:41;;;;;;;20.15;17.27;;;;;;;8.57;100.00;100709.50;5217176;28;20062;-71
2023/03/12 09:50:32;;;;;;;19.65;17.63;;;;;;;8.56;100.00;100715.69;5215759;28;20026;-71
2023/03/12 09:53:12;;;;;;;18.67;16.73;;;;;;;8.73;100.00;100719.56;5213874;28;20053;-71
2023/03/12 09:55:46;;;;;;;19.52;17.70;;;;;;;8.75;100.00;100733.31;5216806;28;20034;-70
2023/03/12 09:58:36;;;;;;;20.50;17.15;;;;;;;8.95;100.00;100729.97;5214283;28;20034;-71
2023/03/12 10:01:17;;;;;;;20.00;17.98;;;;;;;8.93;100.00;100737.09;5215868;28;20026;-71
2023/03/12 10:04:04;;;;;;;20.02;17.92;;;;;;;9.00;100.00;100726.97;5216593;28;20026;-72
2023/03/12 10:07:10;;;;;;;20.00;17.20;;;;;;;9.10;100.00;100743.59;5217236;28;20029;-71
2023/03/12 10:10:06;;;;;;;20.20;18.25;;;;;;;9.33;100.00;100739.13;5214646;28;20395;-73
2023/03/12 10:12:44;;;;;;;22.08;17.52;;;;;;;9.18;100.00;100741.19;5214040;28;20026;-71
2023/03/12 10:15:24;;;;;;;20.40;17.95;;;;;;;9.30;100.00;100736.75;5217171;28;20072;-71
2023/03/12 10:18:41;;;;;;;21.77;17.20;;;;;;;9.49;100.00;100739.50;5215871;28;20025;-71
2023/03/12 10:21:27;;;;;;;22.25;18.40;;;;;;;9.52;100.00;100730.59;5216065;28;20069;-72
2023/03/12 10:24:21;;;;;;;20.85;16.95;;;;;;;9.60;100.00;100733.41;5217057;28;20026;-72
2023/03/12 10:26:56;;;;;;;22.58;17.98;;;;;;;9.57;100.00;100740.69;5216490;28;20108;-71
2023/03/12 10:29:38;;;;;;;27.55;19.27;;;;;;;9.47;100.00;100732.75;5216194;28;20502;-71
2023/03/12 10:32:10;;;;;;;24.47;19.47;;;;;;;9.57;100.00;100735.44;5216844;28;20108;-72
2023/03/12 10:34:41;;;;;;;28.75;19.02;;;;;;;9.59;100.00;100734.38;5216391;28;20289;-72
2023/03/12 10:37:23;;;;;;;26.93;19.37;;;;;;;9.73;100.00;100735.84;5217045;28;20030;-71
2023/03/12 10:39:55;;;;;;;31.35;19.08;;;;;;;9.72;100.00;100734.19;5215901;28;20300;-72
2023/03/12 10:42:28;;;;;;;30.45;20.27;;;;;;;9.75;100.00;100740.00;5216559;28;20392;-72
2023/03/12 10:45:20;;;;;;;26.10;19.20;;;;;;;9.97;100.00;100738.22;5215864;28;20033;-71
2023/03/12 10:47:56;;;;;;;28.15;20.15;;;;;;;9.91;100.00;100723.00;5214325;28;20050;-71
2023/03/12 10:50:32;;;;;;;28.90;19.90;;;;;;;9.97;100.00;100723.34;5216376;28;20113;-72
2023/03/12 10:53:31;;;;;;;37.85;19.77;;;;;;;10.28;100.00;100726.00;5214844;28;20033;-72
2023/03/12 10:56:07;;;;;;;35.33;20.13;;;;;;;10.16;100.00;100734.88;5215742;28;20399;-72
2023/03/12 10:58:41;;;;;;;30.23;17.67;;;;;;;10.33;100.00;100733.44;5216175;28;20036;-72
2023/03/12 11:01:21;;;;;;;25.73;18.27;;;;;;;10.47;100.00;100726.06;5215862;28;20471;-73
2023/03/12 11:04:08;;;;;;;32.75;17.33;;;;;;;10.70;100.00;100726.69;5214495;28;20144;-72
2023/03/12 11:06:40;;;;;;;28.90;16.08;;;;;;;10.68;100.00;100726.00;5214003;28;20026;-72
2023/03/12 11:09:11;;;;;;;29.42;15.68;;;;;;;10.79;100.00;100730.28;5215841;28;20057;-72
2023/03/12 11:11:48;;;;;;;30.63;15.77;;;;;;;10.86;100.00;100741.06;5216190;28;20121;-72
2023/03/12 11:14:23;;;;;;;26.63;15.60;;;;;;;10.90;100.00;100745.91;5215399;28;20314;-72
2023/03/12 11:16:55;;;;;;;27.15;15.20;;;;;;;10.86;100.00;100741.06;5214669;28;20032;-72
2023/03/12 11:19:29;;;;;;;26.30;13.67;;;;;;;10.91;100.00;100731.88;5215323;28;20057;-72
2023/03/12 11:22:04;;;;;;;32.22;14.18;;;;;;;10.95;100.00;100748.97;5214936;28;20053;-72
2023/03/12 11:24:53;;;;;;;29.10;13.60;;;;;;;10.98;100.00;100752.28;5215933;28;20392;-72
2023/03/12 11:27:48;;;;;;;29.85;13.60;;;;;;;11.10;100.00;100749.41;5215127;28;20034;-72
2023/03/12 11:30:25;;;;;;;30.90;12.50;;;;;;;11.10;100.00;100740.69;5215695;28;20026;-73
2023/03/12 11:32:57;;;;;;;27.73;12.07;;;;;;;11.13;100.00;100748.28;5213761;28;20041;-72
2023/03/12 11:35:46;;;;;;;35.13;13.13;;;;;;;11.27;100.00;100758.41;5215715;28;20446;-73
2023/03/12 11:38:25;;;;;;;27.60;11.30;;;;;;;11.16;100.00;100755.91;5215465;28;20033;-73
2023/03/12 11:41:27;;;;;;;25.02;11.98;;;;;;;11.32;100.00;100747.50;5215586;28;20037;-72
2023/03/12 11:44:21;;;;;;;32.50;11.88;;;;;;;11.43;100.00;100756.06;5214576;28;20033;-73
2023/03/12 11:47:14;;;;;;;25.23;11.07;;;;;;;11.31;100.00;100751.09;5214946;28;20129;-72
2023/03/12 11:50:07;;;;;;;27.40;12.02;;;;;;;11.24;100.00;100753.41;5215074;28;20434;-73
2023/03/12 11:52:46;;;;;;;30.02;11.95;;;;;;;11.29;100.00;100758.25;5215866;28;20038;-72
2023/03/12 11:55:36;;;;;;;27.63;12.48;;;;;;;11.57;100.00;100752.19;5215380;28;20124;-71